sensor_id;sensor_type;location;lat;lon;timestamp;temperature;humidity
7574;DHT22;3828;48.922;9.116;2022-08-04T00:02:02;22.20;99.90
7574;DHT22;3828;48.922;9.116;2022-08-04T00:04:32;22.20;99.90
7574;DHT22;3828;48.922;9.116;2022-08-04T00:07:08;22.10;99.90
7574;DHT22;3828;48.922;9.116;2022-08-04T00:09:43;23.00;99.90
7574;DHT22;3828;48.922;9.116;2022-08-04T00:12:15;22.10;99.90
7574;DHT22;3828;48.922;9.116;2022-08-04T00:14:47;22.20;99.90
7574;DHT22;3828;48.922;9.116;2022-08-04T00:17:19;23.00;99.90
7574;DHT22;3828;48.922;9.116;2022-08-04T00:19:47;22.10;99.90
7574;DHT22;3828;48.922;9.116;2022-08-04T00:22:17;22.10;99.90
7574;DHT22;3828;48.922;9.116;2022-08-04T00:24:47;22.40;99.90
7574;DHT22;3828;48.922;9.116;2022-08-04T00:27:14;22.10;99.90
7574;DHT22;3828;48.922;9.116;2022-08-04T00:29:42;22.00;99.90
7574;DHT22;3828;48.922;9.116;2022-08-04T00:32:11;22.00;99.90
7574;DHT22;3828;48.922;9.116;2022-08-04T00:34:38;22.00;99.90
7574;DHT22;3828;48.922;9.116;2022-08-04T00:37:06;22.00;99.90
7574;DHT22;3828;48.922;9.116;2022-08-04T00:39:33;22.00;99.90
7574;DHT22;3828;48.922;9.116;2022-08-04T00:42:15;22.10;99.90
7574;DHT22;3828;48.922;9.116;2022-08-04T00:44:56;22.10;99.90
7574;DHT22;3828;48.922;9.116;2022-08-04T00:47:37;22.20;99.90
7574;DHT22;3828;48.922;9.116;2022-08-04T00:50:08;22.20;99.90
7574;DHT22;3828;48.922;9.116;2022-08-04T00:52:53;22.20;99.90
7574;DHT22;3828;48.922;9.116;2022-08-04T00:55:41;23.20;99.90
7574;DHT22;3828;48.922;9.116;2022-08-04T00:58:35;22.30;99.90
7574;DHT22;3828;48.922;9.116;2022-08-04T01:01:09;22.20;99.90
7574;DHT22;3828;48.922;9.116;2022-08-04T01:03:49;22.10;99.90
7574;DHT22;3828;48.922;9.116;2022-08-04T01:06:23;22.10;99.90
7574;DHT22;3828;48.922;9.116;2022-08-04T01:09:04;22.00;99.90
7574;DHT22;3828;48.922;9.116;2022-08-04T01:11:48;21.90;99.90
7574;DHT22;3828;48.922;9.116;2022-08-04T01:14:56;21.90;99.90
7574;DHT22;3828;48.922;9.116;2022-08-04T01:17:46;21.80;99.90
7574;DHT22;3828;48.922;9.116;2022-08-04T01:20:20;21.80;99.90
7574;DHT22;3828;48.922;9.116;2022-08-04T01:29:02;21.60;99.90
7574;DHT22;3828;48.922;9.116;2022-08-04T01:31:33;21.60;99.90
7574;DHT22;3828;48.922;9.116;2022-08-04T01:34:04;21.50;99.90
7574;DHT22;3828;48.922;9.116;2022-08-04T01:36:33;22.50;99.90
7574;DHT22;3828;48.922;9.116;2022-08-04T01:39:00;21.50;99.90
7574;DHT22;3828;48.922;9.116;2022-08-04T01:41:48;21.40;99.90
7574;DHT22;3828;48.922;9.116;2022-08-04T01:44:17;23.10;99.90
7574;DHT22;3828;48.922;9.116;2022-08-04T01:46:49;21.40;99.90
7574;DHT22;3828;48.922;9.116;2022-08-04T01:49:16;22.30;99.90
7574;DHT22;3828;48.922;9.116;2022-08-04T01:51:48;21.70;99.90
7574;DHT22;3828;48.922;9.116;2022-08-04T01:54:17;22.40;99.90
7574;DHT22;3828;48.922;9.116;2022-08-04T01:56:46;21.30;99.90
7574;DHT22;3828;48.922;9.116;2022-08-04T01:59:19;21.60;99.90
7574;DHT22;3828;48.922;9.116;2022-08-04T02:01:47;21.20;99.90
7574;DHT22;3828;48.922;9.116;2022-08-04T02:04:14;21.20;99.90
7574;DHT22;3828;48.922;9.116;2022-08-04T02:06:49;21.10;99.90
7574;DHT22;3828;48.922;9.116;2022-08-04T02:09:22;21.10;99.90
7574;DHT22;3828;48.922;9.116;2022-08-04T02:11:59;21.10;99.90
7574;DHT22;3828;48.922;9.116;2022-08-04T02:14:30;21.10;99.90
7574;DHT22;3828;48.922;9.116;2022-08-04T02:17:10;24.10;99.90
7574;DHT22;3828;48.922;9.116;2022-08-04T02:19:50;21.00;99.90
7574;DHT22;3828;48.922;9.116;2022-08-04T02:22:21;22.50;99.90
7574;DHT22;3828;48.922;9.116;2022-08-04T02:24:56;20.90;99.90
7574;DHT22;3828;48.922;9.116;2022-08-04T02:27:28;21.60;99.90
7574;DHT22;3828;48.922;9.116;2022-08-04T02:30:00;20.80;99.90
7574;DHT22;3828;48.922;9.116;2022-08-04T02:32:29;20.80;99.90
7574;DHT22;3828;48.922;9.116;2022-08-04T02:35:02;20.80;99.90
7574;DHT22;3828;48.922;9.116;2022-08-04T02:37:30;20.80;99.90
7574;DHT22;3828;48.922;9.116;2022-08-04T02:39:59;20.70;99.90
7574;DHT22;3828;48.922;9.116;2022-08-04T02:42:28;22.00;99.90
7574;DHT22;3828;48.922;9.116;2022-08-04T02:44:59;20.60;99.90
7574;DHT22;3828;48.922;9.116;2022-08-04T02:47:27;20.60;99.90
7574;DHT22;3828;48.922;9.116;2022-08-04T02:49:56;21.50;99.90
7574;DHT22;3828;48.922;9.116;2022-08-04T02:52:24;20.60;99.90
7574;DHT22;3828;48.922;9.116;2022-08-04T02:54:55;21.20;99.90
7574;DHT22;3828;48.922;9.116;2022-08-04T02:57:26;20.50;99.90
7574;DHT22;3828;48.922;9.116;2022-08-04T03:00:08;22.00;99.90
7574;DHT22;3828;48.922;9.116;2022-08-04T03:02:46;20.40;99.90
7574;DHT22;3828;48.922;9.116;2022-08-04T03:05:18;20.40;99.90
7574;DHT22;3828;48.922;9.116;2022-08-04T03:08:13;20.40;99.90
7574;DHT22;3828;48.922;9.116;2022-08-04T03:11:15;20.40;99.90
7574;DHT22;3828;48.922;9.116;2022-08-04T03:14:18;20.40;99.90
7574;DHT22;3828;48.922;9.116;2022-08-04T03:20:16;20.40;99.90
7574;DHT22;3828;48.922;9.116;2022-08-04T03:23:05;20.40;99.90
7574;DHT22;3828;48.922;9.116;2022-08-04T03:29:15;20.30;99.90
7574;DHT22;3828;48.922;9.116;2022-08-04T03:35:15;20.20;99.90
7574;DHT22;3828;48.922;9.116;2022-08-04T03:38:12;20.50;99.90
7574;DHT22;3828;48.922;9.116;2022-08-04T03:41:02;21.00;99.90
7574;DHT22;3828;48.922;9.116;2022-08-04T03:43:55;20.20;99.90
7574;DHT22;3828;48.922;9.116;2022-08-04T03:46:42;20.20;99.90
7574;DHT22;3828;48.922;9.116;2022-08-04T03:49:46;20.10;99.90
7574;DHT22;3828;48.922;9.116;2022-08-04T03:52:38;20.10;99.90
7574;DHT22;3828;48.922;9.116;2022-08-04T03:55:52;20.10;99.90
7574;DHT22;3828;48.922;9.116;2022-08-04T03:58:44;20.00;99.90
7574;DHT22;3828;48.922;9.116;2022-08-04T04:01:34;20.10;99.90
7574;DHT22;3828;48.922;9.116;2022-08-04T04:04:38;20.10;99.90
7574;DHT22;3828;48.922;9.116;2022-08-04T04:07:48;20.10;99.90
7574;DHT22;3828;48.922;9.116;2022-08-04T04:10:43;20.10;99.90
7574;DHT22;3828;48.922;9.116;2022-08-04T04:13:29;23.00;99.90
7574;DHT22;3828;48.922;9.116;2022-08-04T04:16:24;20.10;99.90
7574;DHT22;3828;48.922;9.116;2022-08-04T04:22:09;20.10;99.90
7574;DHT22;3828;48.922;9.116;2022-08-04T04:24:48;20.10;99.90
7574;DHT22;3828;48.922;9.116;2022-08-04T04:27:33;20.00;99.90
7574;DHT22;3828;48.922;9.116;2022-08-04T04:30:06;20.10;99.90
7574;DHT22;3828;48.922;9.116;2022-08-04T04:33:02;20.10;99.90
7574;DHT22;3828;48.922;9.116;2022-08-04T04:35:37;20.00;99.90
7574;DHT22;3828;48.922;9.116;2022-08-04T04:38:26;20.10;99.90
7574;DHT22;3828;48.922;9.116;2022-08-04T04:41:04;20.10;99.90
7574;DHT22;3828;48.922;9.116;2022-08-04T04:43:56;20.20;99.90
7574;DHT22;3828;48.922;9.116;2022-08-04T04:46:36;20.20;99.90
7574;DHT22;3828;48.922;9.116;2022-08-04T04:49:13;20.30;99.90
7574;DHT22;3828;48.922;9.116;2022-08-04T04:51:46;20.40;99.90
7574;DHT22;3828;48.922;9.116;2022-08-04T04:54:23;20.40;99.90
7574;DHT22;3828;48.922;9.116;2022-08-04T04:56:59;21.20;99.90
7574;DHT22;3828;48.922;9.116;2022-08-04T04:59:32;20.50;99.90
7574;DHT22;3828;48.922;9.116;2022-08-04T05:02:22;20.50;99.90
7574;DHT22;3828;48.922;9.116;2022-08-04T05:05:18;20.60;99.90
7574;DHT22;3828;48.922;9.116;2022-08-04T05:11:11;20.80;99.90
7574;DHT22;3828;48.922;9.116;2022-08-04T05:13:43;21.50;99.90
7574;DHT22;3828;48.922;9.116;2022-08-04T05:16:16;20.90;99.90
7574;DHT22;3828;48.922;9.116;2022-08-04T05:18:47;21.00;99.90
7574;DHT22;3828;48.922;9.116;2022-08-04T05:21:25;21.30;99.90
7574;DHT22;3828;48.922;9.116;2022-08-04T05:23:58;21.20;99.90
7574;DHT22;3828;48.922;9.116;2022-08-04T05:26:30;21.30;99.90
7574;DHT22;3828;48.922;9.116;2022-08-04T05:29:02;22.40;99.90
7574;DHT22;3828;48.922;9.116;2022-08-04T05:31:33;21.50;99.90
7574;DHT22;3828;48.922;9.116;2022-08-04T05:34:11;23.20;99.90
7574;DHT22;3828;48.922;9.116;2022-08-04T05:36:43;21.70;99.90
7574;DHT22;3828;48.922;9.116;2022-08-04T05:39:16;21.90;99.90
7574;DHT22;3828;48.922;9.116;2022-08-04T05:41:44;23.20;99.90
7574;DHT22;3828;48.922;9.116;2022-08-04T05:44:14;22.20;99.90
7574;DHT22;3828;48.922;9.116;2022-08-04T05:46:43;23.40;99.90
7574;DHT22;3828;48.922;9.116;2022-08-04T05:49:12;22.50;99.90
7574;DHT22;3828;48.922;9.116;2022-08-04T05:51:39;22.50;99.90
7574;DHT22;3828;48.922;9.116;2022-08-04T05:54:09;23.00;99.90
7574;DHT22;3828;48.922;9.116;2022-08-04T05:56:37;22.90;99.90
7574;DHT22;3828;48.922;9.116;2022-08-04T05:59:04;23.00;99.90
7574;DHT22;3828;48.922;9.116;2022-08-04T06:01:34;24.30;99.90
7574;DHT22;3828;48.922;9.116;2022-08-04T06:04:04;23.30;99.90
7574;DHT22;3828;48.922;9.116;2022-08-04T06:06:32;23.40;99.90
7574;DHT22;3828;48.922;9.116;2022-08-04T06:09:00;23.50;99.90
7574;DHT22;3828;48.922;9.116;2022-08-04T06:11:27;23.70;99.90
7574;DHT22;3828;48.922;9.116;2022-08-04T06:14:00;23.90;99.90
7574;DHT22;3828;48.922;9.116;2022-08-04T06:16:38;25.60;99.90
7574;DHT22;3828;48.922;9.116;2022-08-04T06:19:08;23.00;99.90
7574;DHT22;3828;48.922;9.116;2022-08-04T06:21:38;25.80;99.90
7574;DHT22;3828;48.922;9.116;2022-08-04T06:24:11;24.50;99.90
7574;DHT22;3828;48.922;9.116;2022-08-04T06:26:42;24.50;99.90
7574;DHT22;3828;48.922;9.116;2022-08-04T06:29:10;24.80;99.90
7574;DHT22;3828;48.922;9.116;2022-08-04T06:31:46;25.00;99.90
7574;DHT22;3828;48.922;9.116;2022-08-04T06:34:23;28.10;99.90
7574;DHT22;3828;48.922;9.116;2022-08-04T06:36:51;26.30;99.90
7574;DHT22;3828;48.922;9.116;2022-08-04T06:39:20;25.60;99.90
7574;DHT22;3828;48.922;9.116;2022-08-04T06:41:48;25.80;99.90
7574;DHT22;3828;48.922;9.116;2022-08-04T06:44:16;25.90;99.90
7574;DHT22;3828;48.922;9.116;2022-08-04T06:46:46;26.20;99.90
7574;DHT22;3828;48.922;9.116;2022-08-04T06:49:15;26.40;99.90
7574;DHT22;3828;48.922;9.116;2022-08-04T06:51:44;27.70;99.90
7574;DHT22;3828;48.922;9.116;2022-08-04T06:54:11;26.70;99.90
7574;DHT22;3828;48.922;9.116;2022-08-04T06:56:39;26.90;99.90
7574;DHT22;3828;48.922;9.116;2022-08-04T06:59:07;27.10;99.90
7574;DHT22;3828;48.922;9.116;2022-08-04T07:01:35;27.10;99.90
7574;DHT22;3828;48.922;9.116;2022-08-04T07:04:04;28.70;99.90
7574;DHT22;3828;48.922;9.116;2022-08-04T07:06:31;27.60;99.90
7574;DHT22;3828;48.922;9.116;2022-08-04T07:08:58;27.70;99.90
7574;DHT22;3828;48.922;9.116;2022-08-04T07:11:26;27.80;99.90
7574;DHT22;3828;48.922;9.116;2022-08-04T07:13:54;27.90;99.90
7574;DHT22;3828;48.922;9.116;2022-08-04T07:16:22;28.20;99.90
7574;DHT22;3828;48.922;9.116;2022-08-04T07:18:49;28.40;99.90
7574;DHT22;3828;48.922;9.116;2022-08-04T07:21:20;28.50;99.90
7574;DHT22;3828;48.922;9.116;2022-08-04T07:23:48;28.70;99.90
7574;DHT22;3828;48.922;9.116;2022-08-04T07:26:15;28.80;99.90
7574;DHT22;3828;48.922;9.116;2022-08-04T07:28:45;29.00;99.90
7574;DHT22;3828;48.922;9.116;2022-08-04T07:31:14;29.20;99.90
7574;DHT22;3828;48.922;9.116;2022-08-04T07:33:42;29.40;99.90
7574;DHT22;3828;48.922;9.116;2022-08-04T07:36:09;29.50;99.90
7574;DHT22;3828;48.922;9.116;2022-08-04T07:38:40;29.70;99.90
7574;DHT22;3828;48.922;9.116;2022-08-04T07:41:07;29.90;99.90
7574;DHT22;3828;48.922;9.116;2022-08-04T07:43:35;30.40;99.90
7574;DHT22;3828;48.922;9.116;2022-08-04T07:46:02;30.50;99.90
7574;DHT22;3828;48.922;9.116;2022-08-04T07:48:29;30.40;99.90
7574;DHT22;3828;48.922;9.116;2022-08-04T07:50:57;30.50;99.90
7574;DHT22;3828;48.922;9.116;2022-08-04T07:53:25;30.70;99.90
7574;DHT22;3828;48.922;9.116;2022-08-04T07:55:55;30.80;99.90
7574;DHT22;3828;48.922;9.116;2022-08-04T07:58:22;30.90;99.90
7574;DHT22;3828;48.922;9.116;2022-08-04T08:00:48;30.90;99.90
7574;DHT22;3828;48.922;9.116;2022-08-04T08:03:16;31.10;99.90
7574;DHT22;3828;48.922;9.116;2022-08-04T08:05:44;31.30;99.90
7574;DHT22;3828;48.922;9.116;2022-08-04T08:08:11;32.20;99.90
7574;DHT22;3828;48.922;9.116;2022-08-04T08:10:45;31.50;99.90
7574;DHT22;3828;48.922;9.116;2022-08-04T08:13:13;31.80;99.90
7574;DHT22;3828;48.922;9.116;2022-08-04T08:15:43;32.00;99.30
7574;DHT22;3828;48.922;9.116;2022-08-04T08:18:10;32.30;99.30
7574;DHT22;3828;48.922;9.116;2022-08-04T08:20:37;33.50;99.10
7574;DHT22;3828;48.922;9.116;2022-08-04T08:23:07;32.80;98.40
7574;DHT22;3828;48.922;9.116;2022-08-04T08:25:34;32.50;98.70
7574;DHT22;3828;48.922;9.116;2022-08-04T08:28:02;32.50;98.10
7574;DHT22;3828;48.922;9.116;2022-08-04T08:30:31;32.60;98.90
7574;DHT22;3828;48.922;9.116;2022-08-04T08:33:04;32.80;97.20
7574;DHT22;3828;48.922;9.116;2022-08-04T08:35:35;33.00;97.20
7574;DHT22;3828;48.922;9.116;2022-08-04T08:38:08;33.10;96.00
7574;DHT22;3828;48.922;9.116;2022-08-04T08:40:46;34.40;97.80
7574;DHT22;3828;48.922;9.116;2022-08-04T08:43:38;33.30;96.90
7574;DHT22;3828;48.922;9.116;2022-08-04T08:46:32;33.20;96.60
7574;DHT22;3828;48.922;9.116;2022-08-04T08:49:33;33.20;95.90
7574;DHT22;3828;48.922;9.116;2022-08-04T08:52:19;33.30;95.90
7574;DHT22;3828;48.922;9.116;2022-08-04T08:54:58;33.40;95.60
7574;DHT22;3828;48.922;9.116;2022-08-04T08:57:39;33.50;95.00
7574;DHT22;3828;48.922;9.116;2022-08-04T09:00:13;33.70;95.80
7574;DHT22;3828;48.922;9.116;2022-08-04T09:03:14;33.80;94.60
7574;DHT22;3828;48.922;9.116;2022-08-04T09:06:04;34.10;94.90
7574;DHT22;3828;48.922;9.116;2022-08-04T09:08:54;34.20;94.30
7574;DHT22;3828;48.922;9.116;2022-08-04T09:11:29;34.30;93.60
7574;DHT22;3828;48.922;9.116;2022-08-04T09:14:09;34.60;94.60
7574;DHT22;3828;48.922;9.116;2022-08-04T09:16:51;34.80;94.30
7574;DHT22;3828;48.922;9.116;2022-08-04T09:19:26;34.60;92.90
7574;DHT22;3828;48.922;9.116;2022-08-04T09:22:00;34.90;93.70
7574;DHT22;3828;48.922;9.116;2022-08-04T09:24:37;34.90;93.20
7574;DHT22;3828;48.922;9.116;2022-08-04T09:27:14;35.00;91.70
7574;DHT22;3828;48.922;9.116;2022-08-04T09:29:46;35.20;91.70
7574;DHT22;3828;48.922;9.116;2022-08-04T09:32:22;36.50;92.90
7574;DHT22;3828;48.922;9.116;2022-08-04T09:35:02;38.10;92.80
7574;DHT22;3828;48.922;9.116;2022-08-04T09:37:37;34.50;91.40
7574;DHT22;3828;48.922;9.116;2022-08-04T09:40:12;36.00;90.50
7574;DHT22;3828;48.922;9.116;2022-08-04T09:42:49;33.80;87.60
7574;DHT22;3828;48.922;9.116;2022-08-04T09:45:23;35.90;88.90
7574;DHT22;3828;48.922;9.116;2022-08-04T09:47:56;35.90;88.50
7574;DHT22;3828;48.922;9.116;2022-08-04T09:50:33;35.90;88.30
7574;DHT22;3828;48.922;9.116;2022-08-04T09:53:26;36.20;89.00
7574;DHT22;3828;48.922;9.116;2022-08-04T09:56:02;36.30;88.20
7574;DHT22;3828;48.922;9.116;2022-08-04T09:58:50;36.50;88.90
7574;DHT22;3828;48.922;9.116;2022-08-04T10:01:21;36.70;88.00
7574;DHT22;3828;48.922;9.116;2022-08-04T10:03:50;36.90;87.60
7574;DHT22;3828;48.922;9.116;2022-08-04T10:06:35;37.00;86.70
7574;DHT22;3828;48.922;9.116;2022-08-04T10:09:30;37.30;83.40
7574;DHT22;3828;48.922;9.116;2022-08-04T10:12:10;37.50;84.20
7574;DHT22;3828;48.922;9.116;2022-08-04T10:14:50;37.50;82.40
7574;DHT22;3828;48.922;9.116;2022-08-04T10:17:41;37.80;81.40
7574;DHT22;3828;48.922;9.116;2022-08-04T10:20:13;38.10;81.00
7574;DHT22;3828;48.922;9.116;2022-08-04T10:22:53;38.50;82.10
7574;DHT22;3828;48.922;9.116;2022-08-04T10:25:32;38.40;80.40
7574;DHT22;3828;48.922;9.116;2022-08-04T10:28:05;38.40;81.20
7574;DHT22;3828;48.922;9.116;2022-08-04T10:30:36;38.80;80.10
7574;DHT22;3828;48.922;9.116;2022-08-04T10:33:20;38.90;78.40
7574;DHT22;3828;48.922;9.116;2022-08-04T10:35:52;39.20;76.60
7574;DHT22;3828;48.922;9.116;2022-08-04T10:38:25;39.10;75.30
7574;DHT22;3828;48.922;9.116;2022-08-04T10:40:59;39.00;76.80
7574;DHT22;3828;48.922;9.116;2022-08-04T10:43:37;39.10;76.70
7574;DHT22;3828;48.922;9.116;2022-08-04T10:46:10;39.70;76.30
7574;DHT22;3828;48.922;9.116;2022-08-04T10:48:42;40.00;75.10
7574;DHT22;3828;48.922;9.116;2022-08-04T10:51:17;40.50;74.00
7574;DHT22;3828;48.922;9.116;2022-08-04T10:53:50;40.80;74.10
7574;DHT22;3828;48.922;9.116;2022-08-04T10:56:32;40.80;72.70
7574;DHT22;3828;48.922;9.116;2022-08-04T10:59:15;40.70;70.60
7574;DHT22;3828;48.922;9.116;2022-08-04T11:01:45;40.90;70.60
7574;DHT22;3828;48.922;9.116;2022-08-04T11:04:20;41.00;70.00
7574;DHT22;3828;48.922;9.116;2022-08-04T11:06:49;40.40;68.60
7574;DHT22;3828;48.922;9.116;2022-08-04T11:09:19;40.50;71.60
7574;DHT22;3828;48.922;9.116;2022-08-04T11:11:53;41.10;70.70
7574;DHT22;3828;48.922;9.116;2022-08-04T11:14:28;41.70;67.90
7574;DHT22;3828;48.922;9.116;2022-08-04T11:17:00;41.80;67.60
7574;DHT22;3828;48.922;9.116;2022-08-04T11:19:31;41.80;65.60
7574;DHT22;3828;48.922;9.116;2022-08-04T11:22:05;41.90;64.10
7574;DHT22;3828;48.922;9.116;2022-08-04T11:24:39;42.10;63.00
7574;DHT22;3828;48.922;9.116;2022-08-04T11:27:12;42.40;62.60
7574;DHT22;3828;48.922;9.116;2022-08-04T11:29:45;42.20;62.90
7574;DHT22;3828;48.922;9.116;2022-08-04T11:32:19;42.30;60.40
7574;DHT22;3828;48.922;9.116;2022-08-04T11:34:48;42.30;62.00
7574;DHT22;3828;48.922;9.116;2022-08-04T11:37:21;42.30;61.90
7574;DHT22;3828;48.922;9.116;2022-08-04T11:39:54;42.50;60.10
7574;DHT22;3828;48.922;9.116;2022-08-04T11:42:25;42.50;59.60
7574;DHT22;3828;48.922;9.116;2022-08-04T11:44:58;43.00;59.50
7574;DHT22;3828;48.922;9.116;2022-08-04T11:47:28;42.90;59.20
7574;DHT22;3828;48.922;9.116;2022-08-04T11:50:02;42.60;59.50
7574;DHT22;3828;48.922;9.116;2022-08-04T11:52:30;43.10;62.10
7574;DHT22;3828;48.922;9.116;2022-08-04T11:55:02;42.90;59.30
7574;DHT22;3828;48.922;9.116;2022-08-04T11:57:29;42.60;59.40
7574;DHT22;3828;48.922;9.116;2022-08-04T11:59:57;43.00;59.10
7574;DHT22;3828;48.922;9.116;2022-08-04T12:02:49;43.30;59.30
7574;DHT22;3828;48.922;9.116;2022-08-04T12:05:26;42.60;58.80
7574;DHT22;3828;48.922;9.116;2022-08-04T12:08:04;42.90;57.70
7574;DHT22;3828;48.922;9.116;2022-08-04T12:10:46;42.60;58.90
7574;DHT22;3828;48.922;9.116;2022-08-04T12:13:26;42.70;59.60
7574;DHT22;3828;48.922;9.116;2022-08-04T12:16:00;42.90;58.80
7574;DHT22;3828;48.922;9.116;2022-08-04T12:18:33;42.90;60.30
7574;DHT22;3828;48.922;9.116;2022-08-04T12:21:06;43.50;58.90
7574;DHT22;3828;48.922;9.116;2022-08-04T12:23:37;43.90;57.70
7574;DHT22;3828;48.922;9.116;2022-08-04T12:26:09;43.70;56.20
7574;DHT22;3828;48.922;9.116;2022-08-04T12:28:40;43.10;56.60
7574;DHT22;3828;48.922;9.116;2022-08-04T12:31:14;43.40;57.90
7574;DHT22;3828;48.922;9.116;2022-08-04T12:33:48;43.70;57.10
7574;DHT22;3828;48.922;9.116;2022-08-04T12:36:23;43.50;55.90
7574;DHT22;3828;48.922;9.116;2022-08-04T12:38:58;43.90;55.90
7574;DHT22;3828;48.922;9.116;2022-08-04T12:41:35;44.00;54.60
7574;DHT22;3828;48.922;9.116;2022-08-04T12:44:06;44.40;55.50
7574;DHT22;3828;48.922;9.116;2022-08-04T12:46:39;43.70;56.00
7574;DHT22;3828;48.922;9.116;2022-08-04T12:49:11;42.90;57.10
7574;DHT22;3828;48.922;9.116;2022-08-04T12:51:41;42.40;57.50
7574;DHT22;3828;48.922;9.116;2022-08-04T12:54:09;42.10;58.00
7574;DHT22;3828;48.922;9.116;2022-08-04T12:56:40;41.10;58.70
7574;DHT22;3828;48.922;9.116;2022-08-04T12:59:09;40.30;59.80
7574;DHT22;3828;48.922;9.116;2022-08-04T13:01:38;39.80;60.50
7574;DHT22;3828;48.922;9.116;2022-08-04T13:04:12;39.90;61.10
7574;DHT22;3828;48.922;9.116;2022-08-04T13:06:41;40.10;60.20
7574;DHT22;3828;48.922;9.116;2022-08-04T13:09:13;40.20;60.80
7574;DHT22;3828;48.922;9.116;2022-08-04T13:11:47;40.20;60.20
7574;DHT22;3828;48.922;9.116;2022-08-04T13:14:17;39.60;60.50
7574;DHT22;3828;48.922;9.116;2022-08-04T13:16:44;39.90;62.40
7574;DHT22;3828;48.922;9.116;2022-08-04T13:19:11;40.50;59.70
7574;DHT22;3828;48.922;9.116;2022-08-04T13:21:41;40.20;59.90
7574;DHT22;3828;48.922;9.116;2022-08-04T13:24:12;39.60;60.30
7574;DHT22;3828;48.922;9.116;2022-08-04T13:26:53;39.10;61.10
7574;DHT22;3828;48.922;9.116;2022-08-04T13:29:23;38.30;61.60
7574;DHT22;3828;48.922;9.116;2022-08-04T13:31:50;37.80;63.60
7574;DHT22;3828;48.922;9.116;2022-08-04T13:34:18;37.60;64.60
7574;DHT22;3828;48.922;9.116;2022-08-04T13:36:45;37.90;62.80
7574;DHT22;3828;48.922;9.116;2022-08-04T13:39:16;39.10;64.20
7574;DHT22;3828;48.922;9.116;2022-08-04T13:41:45;40.20;62.10
7574;DHT22;3828;48.922;9.116;2022-08-04T13:44:18;41.00;61.10
7574;DHT22;3828;48.922;9.116;2022-08-04T13:46:48;41.70;58.60
7574;DHT22;3828;48.922;9.116;2022-08-04T13:49:17;42.50;58.00
7574;DHT22;3828;48.922;9.116;2022-08-04T13:51:50;43.20;57.60
7574;DHT22;3828;48.922;9.116;2022-08-04T13:54:17;43.30;56.70
7574;DHT22;3828;48.922;9.116;2022-08-04T13:56:46;42.60;56.80
7574;DHT22;3828;48.922;9.116;2022-08-04T13:59:16;42.00;58.70
7574;DHT22;3828;48.922;9.116;2022-08-04T14:01:53;41.00;58.80
7574;DHT22;3828;48.922;9.116;2022-08-04T14:04:23;40.20;59.30
7574;DHT22;3828;48.922;9.116;2022-08-04T14:06:54;39.90;59.00
7574;DHT22;3828;48.922;9.116;2022-08-04T14:09:22;40.20;58.20
7574;DHT22;3828;48.922;9.116;2022-08-04T14:11:52;40.60;57.70
7574;DHT22;3828;48.922;9.116;2022-08-04T14:14:21;40.50;60.90
7574;DHT22;3828;48.922;9.116;2022-08-04T14:17:00;40.40;59.10
7574;DHT22;3828;48.922;9.116;2022-08-04T14:19:29;40.90;59.20
7574;DHT22;3828;48.922;9.116;2022-08-04T14:21:56;41.40;57.30
7574;DHT22;3828;48.922;9.116;2022-08-04T14:24:24;42.10;56.20
7574;DHT22;3828;48.922;9.116;2022-08-04T14:26:52;41.50;57.00
7574;DHT22;3828;48.922;9.116;2022-08-04T14:29:20;40.90;57.10
7574;DHT22;3828;48.922;9.116;2022-08-04T14:31:47;40.30;59.70
7574;DHT22;3828;48.922;9.116;2022-08-04T14:34:25;40.70;59.40
7574;DHT22;3828;48.922;9.116;2022-08-04T14:36:52;41.20;57.90
7574;DHT22;3828;48.922;9.116;2022-08-04T14:39:40;42.00;58.80
7574;DHT22;3828;48.922;9.116;2022-08-04T14:42:08;42.60;55.70
7574;DHT22;3828;48.922;9.116;2022-08-04T14:44:53;43.00;57.80
7574;DHT22;3828;48.922;9.116;2022-08-04T14:47:39;43.20;56.70
7574;DHT22;3828;48.922;9.116;2022-08-04T14:50:07;43.30;56.00
7574;DHT22;3828;48.922;9.116;2022-08-04T14:52:34;43.40;55.60
7574;DHT22;3828;48.922;9.116;2022-08-04T14:55:15;43.60;55.20
7574;DHT22;3828;48.922;9.116;2022-08-04T14:57:42;43.80;55.10
7574;DHT22;3828;48.922;9.116;2022-08-04T15:00:11;43.60;55.30
7574;DHT22;3828;48.922;9.116;2022-08-04T15:02:50;43.50;55.40
7574;DHT22;3828;48.922;9.116;2022-08-04T15:05:19;43.50;54.80
7574;DHT22;3828;48.922;9.116;2022-08-04T15:07:46;43.20;54.10
7574;DHT22;3828;48.922;9.116;2022-08-04T15:10:16;43.30;53.80
7574;DHT22;3828;48.922;9.116;2022-08-04T15:12:43;43.40;54.70
7574;DHT22;3828;48.922;9.116;2022-08-04T15:15:14;43.30;54.80
7574;DHT22;3828;48.922;9.116;2022-08-04T15:17:41;43.40;56.20
7574;DHT22;3828;48.922;9.116;2022-08-04T15:20:10;43.50;56.20
7574;DHT22;3828;48.922;9.116;2022-08-04T15:22:37;43.50;54.10
7574;DHT22;3828;48.922;9.116;2022-08-04T15:25:05;43.30;55.20
7574;DHT22;3828;48.922;9.116;2022-08-04T15:27:34;42.60;55.20
7574;DHT22;3828;48.922;9.116;2022-08-04T15:30:04;42.20;55.30
7574;DHT22;3828;48.922;9.116;2022-08-04T15:32:34;41.30;56.10
7574;DHT22;3828;48.922;9.116;2022-08-04T15:35:04;40.60;56.70
7574;DHT22;3828;48.922;9.116;2022-08-04T15:37:41;39.70;57.30
7574;DHT22;3828;48.922;9.116;2022-08-04T15:40:12;39.30;58.70
7574;DHT22;3828;48.922;9.116;2022-08-04T15:42:44;39.00;59.10
7574;DHT22;3828;48.922;9.116;2022-08-04T15:45:20;38.70;59.50
7574;DHT22;3828;48.922;9.116;2022-08-04T15:48:21;38.20;58.80
7574;DHT22;3828;48.922;9.116;2022-08-04T15:51:10;37.90;59.90
7574;DHT22;3828;48.922;9.116;2022-08-04T15:56:48;37.30;61.70
7574;DHT22;3828;48.922;9.116;2022-08-04T15:59:15;37.00;62.00
7574;DHT22;3828;48.922;9.116;2022-08-04T16:01:42;37.00;62.40
7574;DHT22;3828;48.922;9.116;2022-08-04T16:04:23;37.00;62.10
7574;DHT22;3828;48.922;9.116;2022-08-04T16:06:51;36.60;61.20
7574;DHT22;3828;48.922;9.116;2022-08-04T16:09:31;36.50;60.90
7574;DHT22;3828;48.922;9.116;2022-08-04T16:11:59;36.50;62.50
7574;DHT22;3828;48.922;9.116;2022-08-04T16:14:33;36.50;62.70
7574;DHT22;3828;48.922;9.116;2022-08-04T16:17:17;36.50;63.10
7574;DHT22;3828;48.922;9.116;2022-08-04T16:20:00;36.50;63.50
7574;DHT22;3828;48.922;9.116;2022-08-04T16:22:34;36.60;62.40
7574;DHT22;3828;48.922;9.116;2022-08-04T16:25:03;36.40;63.00
7574;DHT22;3828;48.922;9.116;2022-08-04T16:27:38;36.40;62.50
7574;DHT22;3828;48.922;9.116;2022-08-04T16:30:07;36.60;63.90
7574;DHT22;3828;48.922;9.116;2022-08-04T16:32:42;36.30;63.00
7574;DHT22;3828;48.922;9.116;2022-08-04T16:35:24;36.20;63.30
7574;DHT22;3828;48.922;9.116;2022-08-04T16:38:12;36.10;63.80
7574;DHT22;3828;48.922;9.116;2022-08-04T16:40:40;36.00;64.80
7574;DHT22;3828;48.922;9.116;2022-08-04T16:43:12;35.80;63.40
7574;DHT22;3828;48.922;9.116;2022-08-04T16:45:47;35.60;64.00
7574;DHT22;3828;48.922;9.116;2022-08-04T16:48:15;35.60;64.20
7574;DHT22;3828;48.922;9.116;2022-08-04T16:50:53;35.50;64.70
7574;DHT22;3828;48.922;9.116;2022-08-04T16:53:21;35.30;64.50
7574;DHT22;3828;48.922;9.116;2022-08-04T16:55:51;35.40;64.20
7574;DHT22;3828;48.922;9.116;2022-08-04T16:58:25;33.50;63.00
7574;DHT22;3828;48.922;9.116;2022-08-04T17:00:52;35.30;64.60
7574;DHT22;3828;48.922;9.116;2022-08-04T17:03:20;35.20;64.90
7574;DHT22;3828;48.922;9.116;2022-08-04T17:05:47;35.10;65.30
7574;DHT22;3828;48.922;9.116;2022-08-04T17:08:15;36.00;66.40
7574;DHT22;3828;48.922;9.116;2022-08-04T17:10:47;34.80;66.20
7574;DHT22;3828;48.922;9.116;2022-08-04T17:13:22;34.80;66.70
7574;DHT22;3828;48.922;9.116;2022-08-04T17:15:51;34.60;66.70